Time;durP1;ratioP1;P1;durP2;ratioP2;P2;SDS_P1;SDS_P2;PMS_P1;PMS_P2;Temp;Humidity;BMP_temperature;BMP_pressure;BME280_temperature;BME280_humidity;BME280_pressure;Samples;Min_cycle;Max_cycle;Signal;HPM_P1;HPM_P2
2021/12/20 00:01:20;;;;;;;15.52;2.00;;;;;;;;;;4882827;29;20021;-89
2021/12/20 00:03:52;;;;;;;13.75;1.95;;;;;;;;;;4882618;29;20028;-88
2021/12/20 00:06:20;;;;;;;13.77;2.10;;;;;;;;;;4882121;29;20025;-90
2021/12/20 00:08:45;;;;;;;11.50;1.50;;;;;;;;;;4880963;29;20025;-92
2021/12/20 00:11:10;;;;;;;10.57;2.28;;;;;;;;;;4880812;29;20033;-92
2021/12/20 00:13:38;;;;;;;9.55;2.42;;;;;;;;;;4882450;29;20089;-91
2021/12/20 00:16:04;;;;;;;12.88;2.22;;;;;;;;;;4882965;29;20078;-91
2021/12/20 00:18:29;;;;;;;14.18;2.40;;;;;;;;;;4881820;29;20021;-90
2021/12/20 00:20:55;;;;;;;18.20;2.33;;;;;;;;;;4880841;29;20017;-89
2021/12/20 00:23:21;;;;;;;18.52;2.15;;;;;;;;;;4881111;29;20044;-88
2021/12/20 00:25:48;;;;;;;15.27;2.08;;;;;;;;;;4881032;29;20374;-89
2021/12/20 00:28:15;;;;;;;15.77;1.73;;;;;;;;;;4879442;29;20157;-90
2021/12/20 00:30:40;;;;;;;16.58;2.17;;;;;;;;;;4878906;29;20050;-89
2021/12/20 00:33:05;;;;;;;8.00;1.48;;;;;;;;;;4880240;29;20056;-90
2021/12/20 00:35:30;;;;;;;9.10;1.85;;;;;;;;;;4879824;29;20024;-91
2021/12/20 00:40:40;;;;;;;8.52;1.63;;;;;;;;;;4880924;29;20020;-89
2021/12/20 00:43:06;;;;;;;15.75;2.38;;;;;;;;;;4880422;29;20021;-90
2021/12/20 00:45:32;;;;;;;12.90;1.75;;;;;;;;;;4880446;29;20397;-91
2021/12/20 00:47:58;;;;;;;22.88;2.05;;;;;;;;;;4880766;29;20089;-90
2021/12/20 00:50:24;;;;;;;12.40;2.03;;;;;;;;;;4880628;29;20434;-89
2021/12/20 00:52:50;;;;;;;8.43;1.67;;;;;;;;;;4882844;29;20052;-91
2021/12/20 00:55:16;;;;;;;15.52;1.50;;;;;;;;;;4883268;29;20033;-88
2021/12/20 00:57:45;;;;;;;11.50;1.70;;;;;;;;;;4883132;29;20029;-87
2021/12/20 01:00:11;;;;;;;10.07;1.60;;;;;;;;;;4882740;29;20021;-90
2021/12/20 01:02:36;;;;;;;9.93;1.83;;;;;;;;;;4882883;29;20021;-91
2021/12/20 01:05:02;;;;;;;12.55;2.90;;;;;;;;;;4883937;29;20025;-87
2021/12/20 01:07:28;;;;;;;14.32;1.73;;;;;;;;;;4881407;29;20025;-87
2021/12/20 01:09:57;;;;;;;10.13;1.70;;;;;;;;;;4882965;29;20108;-87
2021/12/20 01:12:31;;;;;;;;;;;;;;;;;;4881721;29;20048;-90
2021/12/20 01:15:00;;;;;;;11.65;2.08;;;;;;;;;;4883651;29;19907;-90
2021/12/20 01:17:25;;;;;;;9.75;1.77;;;;;;;;;;4883514;29;20393;-89
2021/12/20 01:19:50;;;;;;;9.75;2.15;;;;;;;;;;4883644;29;20021;-90
2021/12/20 01:22:19;;;;;;;12.07;1.90;;;;;;;;;;4882208;29;20029;-91
2021/12/20 01:24:44;;;;;;;11.85;2.05;;;;;;;;;;4884732;29;20028;-90
2021/12/20 01:27:12;;;;;;;16.67;2.00;;;;;;;;;;4883916;29;20029;-89
2021/12/20 01:29:38;;;;;;;18.25;2.13;;;;;;;;;;4883562;29;20063;-90
2021/12/20 01:32:06;;;;;;;7.28;1.55;;;;;;;;;;4885015;29;20040;-89
2021/12/20 01:34:32;;;;;;;9.68;1.40;;;;;;;;;;4882244;29;20025;-91
2021/12/20 01:36:57;;;;;;;9.52;1.80;;;;;;;;;;4881711;29;20025;-89
2021/12/20 01:39:23;;;;;;;15.45;2.88;;;;;;;;;;4881837;29;20080;-87
2021/12/20 01:41:52;;;;;;;13.80;2.10;;;;;;;;;;4882268;29;20048;-87
2021/12/20 01:44:17;;;;;;;11.65;1.88;;;;;;;;;;4881376;29;20024;-87
2021/12/20 01:46:42;;;;;;;9.13;1.60;;;;;;;;;;4881049;29;20124;-87
2021/12/20 01:49:11;;;;;;;13.10;1.80;;;;;;;;;;4883942;29;20159;-88
2021/12/20 01:54:01;;;;;;;10.82;1.85;;;;;;;;;;4884297;29;19914;-86
2021/12/20 01:56:33;;;;;;;9.95;2.67;;;;;;;;;;4883184;29;20280;-92
2021/12/20 01:59:05;;;;;;;10.77;1.85;;;;;;;;;;4884118;29;20119;-87
2021/12/20 02:01:30;;;;;;;7.85;2.80;;;;;;;;;;4889164;29;20065;-87
2021/12/20 02:03:59;;;;;;;8.27;1.88;;;;;;;;;;4893013;29;20053;-87
2021/12/20 02:06:33;;;;;;;12.20;1.75;;;;;;;;;;4887803;29;20032;-86
2021/12/20 02:09:00;;;;;;;10.40;1.67;;;;;;;;;;4883339;29;20025;-87
2021/12/20 02:11:25;;;;;;;13.70;1.60;;;;;;;;;;4889674;29;20044;-86
2021/12/20 02:13:51;;;;;;;6.97;1.75;;;;;;;;;;4888869;29;20036;-85
2021/12/20 02:16:17;;;;;;;5.15;1.67;;;;;;;;;;4886515;29;20025;-87
2021/12/20 02:18:45;;;;;;;10.35;1.65;;;;;;;;;;4882608;29;20032;-87
2021/12/20 02:21:11;;;;;;;10.00;2.00;;;;;;;;;;4887870;29;20025;-85
2021/12/20 07:52:04;;;;;;;10.60;2.30;;;;;;;;;;5870167;23;20437;-85
2021/12/20 08:17:45;;;;;;;16.10;1.90;;;;;;;;;;5855379;23;20027;-84
2021/12/20 08:20:19;;;;;;;7.68;2.15;;;;;;;;;;4901083;29;20069;-87
2021/12/20 08:35:50;;;;;;;7.90;2.30;;;;;;;;;;5872994;23;20243;-83
2021/12/20 08:38:16;;;;;;;12.68;2.03;;;;;;;;;;4902937;29;20029;-83
2021/12/20 10:03:23;;;;;;;8.38;1.52;;;;;;;;;;5694792;23;20029;-83
2021/12/20 10:39:43;;;;;;;13.63;1.95;;;;;;;;;;5134180;23;20045;-85
2021/12/20 12:51:21;;;;;;;11.02;2.90;;;;;;;;;;5192947;23;20560;-92
2021/12/20 12:53:46;;;;;;;8.73;2.50;;;;;;;;;;4882329;29;20048;-93
2021/12/20 13:02:00;;;;;;;8.40;2.22;;;;;;;;;;5309429;23;20057;-95
2021/12/20 13:07:46;;;;;;;;;;;;;;;;;;;;;
2021/12/20 13:10:29;;;;;;;9.60;2.88;;;;;;;;;;4902204;29;20060;-95
2021/12/20 13:18:39;;;;;;;8.77;2.40;;;;;;;;;;4902949;29;20020;-96
2021/12/20 13:21:14;;;;;;;10.57;2.40;;;;;;;;;;4903358;29;20020;-96
2021/12/20 13:23:48;;;;;;;8.60;2.05;;;;;;;;;;4905375;29;20036;-96
2021/12/20 13:26:21;;;;;;;7.30;2.00;;;;;;;;;;4904619;29;20029;-96
2021/12/20 13:28:50;;;;;;;11.50;1.95;;;;;;;;;;4904142;29;20009;-96
2021/12/20 13:31:18;;;;;;;9.13;2.03;;;;;;;;;;4903874;29;20036;-96
2021/12/20 13:34:00;;;;;;;7.50;2.20;;;;;;;;;;4940055;23;20036;-96
2021/12/20 13:39:10;;;;;;;6.68;1.98;;;;;;;;;;5005872;23;20049;-96
2021/12/20 13:47:16;;;;;;;7.85;2.58;;;;;;;;;;5150565;23;20085;-96
2021/12/20 13:52:21;;;;;;;11.23;2.25;;;;;;;;;;5855788;23;20270;-96
2021/12/20 13:55:00;;;;;;;9.50;2.08;;;;;;;;;;5021627;23;20051;-96
2021/12/20 15:30:37;;;;;;;8.18;2.25;;;;;;;;;;5032158;23;20056;-79
2021/12/20 15:33:03;;;;;;;12.18;2.95;;;;;;;;;;4887600;29;20032;-80
2021/12/20 15:35:29;;;;;;;6.68;2.40;;;;;;;;;;4881547;29;20041;-80
2021/12/20 15:37:54;;;;;;;6.35;2.33;;;;;;;;;;4887837;29;20373;-81
2021/12/20 15:40:19;;;;;;;12.25;2.53;;;;;;;;;;4878883;29;20033;-80
2021/12/20 15:42:58;;;;;;;11.52;3.42;;;;;;;;;;4871285;29;20029;-80
2021/12/20 15:45:28;;;;;;;8.60;2.90;;;;;;;;;;4865740;29;20033;-79
2021/12/20 15:47:53;;;;;;;6.78;2.00;;;;;;;;;;4871727;29;20072;-79
2021/12/20 20:36:13;;;;;;;;;;;;;;;;;;;;;
